sensor_id;sensor_type;location;lat;lon;timestamp;pressure;altitude;pressure_sealevel;temperature;humidity
75208;BME280;63795;55.684;37.864;2023-06-24T00:04:04;99116.00;;;17.30;80.59
75208;BME280;63795;55.684;37.864;2023-06-24T00:09:04;99119.69;;;17.31;80.28
75208;BME280;63795;55.684;37.864;2023-06-24T00:14:05;99124.28;;;17.28;80.13
75208;BME280;63795;55.684;37.864;2023-06-24T00:19:07;99113.56;;;17.20;79.91
75208;BME280;63795;55.684;37.864;2023-06-24T00:24:08;99125.03;;;17.20;79.54
75208;BME280;63795;55.684;37.864;2023-06-24T00:29:09;99130.91;;;17.16;80.05
75208;BME280;63795;55.684;37.864;2023-06-24T00:34:10;99111.81;;;17.13;79.63
75208;BME280;63795;55.684;37.864;2023-06-24T00:39:10;99113.06;;;17.12;79.42
75208;BME280;63795;55.684;37.864;2023-06-24T00:44:11;99105.75;;;17.11;79.27
75208;BME280;63795;55.684;37.864;2023-06-24T00:49:12;99102.22;;;17.07;79.68
75208;BME280;63795;55.684;37.864;2023-06-24T00:54:16;99115.06;;;17.02;79.55
75208;BME280;63795;55.684;37.864;2023-06-24T00:59:17;99099.09;;;16.92;79.98
75208;BME280;63795;55.684;37.864;2023-06-24T01:04:18;99099.59;;;16.91;80.10
75208;BME280;63795;55.684;37.864;2023-06-24T01:09:20;99111.81;;;16.91;80.00
75208;BME280;63795;55.684;37.864;2023-06-24T01:14:21;99101.16;;;16.92;80.11
75208;BME280;63795;55.684;37.864;2023-06-24T01:35:32;99120.72;;;16.93;77.72
75208;BME280;63795;55.684;37.864;2023-06-24T01:40:41;99115.47;;;16.92;77.70
75208;BME280;63795;55.684;37.864;2023-06-24T01:45:48;99125.22;;;16.94;77.25
75208;BME280;63795;55.684;37.864;2023-06-24T01:51:12;99118.00;;;16.90;77.08
75208;BME280;63795;55.684;37.864;2023-06-24T01:56:14;99128.66;;;16.89;77.13
75208;BME280;63795;55.684;37.864;2023-06-24T02:01:15;99134.66;;;16.82;76.45
75208;BME280;63795;55.684;37.864;2023-06-24T02:06:18;99126.81;;;16.74;75.96
75208;BME280;63795;55.684;37.864;2023-06-24T02:11:21;99134.41;;;16.68;75.77
75208;BME280;63795;55.684;37.864;2023-06-24T02:16:23;99140.06;;;16.59;75.85
75208;BME280;63795;55.684;37.864;2023-06-24T02:21:26;99134.59;;;16.52;76.19
75208;BME280;63795;55.684;37.864;2023-06-24T02:26:27;99124.44;;;16.51;75.46
75208;BME280;63795;55.684;37.864;2023-06-24T02:31:27;99130.16;;;16.51;75.95
75208;BME280;63795;55.684;37.864;2023-06-24T02:36:28;99132.88;;;16.54;75.83
75208;BME280;63795;55.684;37.864;2023-06-24T02:41:28;99128.53;;;16.50;74.94
75208;BME280;63795;55.684;37.864;2023-06-24T02:46:30;99151.31;;;16.53;75.37
75208;BME280;63795;55.684;37.864;2023-06-24T02:51:33;99141.59;;;16.51;74.33
75208;BME280;63795;55.684;37.864;2023-06-24T02:56:35;99146.78;;;16.65;74.72
75208;BME280;63795;55.684;37.864;2023-06-24T03:01:39;99136.81;;;16.69;73.58
75208;BME280;63795;55.684;37.864;2023-06-24T03:06:40;99150.78;;;16.67;73.47
75208;BME280;63795;55.684;37.864;2023-06-24T03:11:42;99150.00;;;16.67;73.25
75208;BME280;63795;55.684;37.864;2023-06-24T03:16:42;99149.84;;;16.70;73.20
75208;BME280;63795;55.684;37.864;2023-06-24T03:21:43;99151.31;;;16.75;73.29
75208;BME280;63795;55.684;37.864;2023-06-24T03:26:43;99152.00;;;16.79;73.22
75208;BME280;63795;55.684;37.864;2023-06-24T03:31:44;99144.31;;;16.76;73.33
75208;BME280;63795;55.684;37.864;2023-06-24T03:36:45;99157.38;;;16.77;73.20
75208;BME280;63795;55.684;37.864;2023-06-24T03:41:46;99148.94;;;16.73;72.66
75208;BME280;63795;55.684;37.864;2023-06-24T03:46:46;99150.47;;;16.65;73.23
75208;BME280;63795;55.684;37.864;2023-06-24T03:51:47;99158.81;;;16.60;73.43
75208;BME280;63795;55.684;37.864;2023-06-24T03:56:47;99168.16;;;16.51;73.85
75208;BME280;63795;55.684;37.864;2023-06-24T04:01:48;99164.03;;;16.40;73.75
75208;BME280;63795;55.684;37.864;2023-06-24T04:06:50;99156.53;;;16.33;73.82
75208;BME280;63795;55.684;37.864;2023-06-24T04:11:51;99164.84;;;16.40;74.15
75208;BME280;63795;55.684;37.864;2023-06-24T04:16:51;99171.50;;;16.37;73.69
75208;BME280;63795;55.684;37.864;2023-06-24T04:21:52;99175.94;;;16.38;73.74
75208;BME280;63795;55.684;37.864;2023-06-24T04:26:52;99178.59;;;16.33;73.80
75208;BME280;63795;55.684;37.864;2023-06-24T04:31:53;99181.94;;;16.31;73.77
75208;BME280;63795;55.684;37.864;2023-06-24T04:36:53;99194.75;;;16.27;73.31
75208;BME280;63795;55.684;37.864;2023-06-24T04:41:54;99195.66;;;16.24;73.77
75208;BME280;63795;55.684;37.864;2023-06-24T04:46:54;99189.50;;;16.12;73.77
75208;BME280;63795;55.684;37.864;2023-06-24T04:51:55;99202.78;;;16.06;74.06
75208;BME280;63795;55.684;37.864;2023-06-24T04:56:55;99206.00;;;16.08;74.16
75208;BME280;63795;55.684;37.864;2023-06-24T05:01:56;99199.25;;;16.15;73.67
75208;BME280;63795;55.684;37.864;2023-06-24T05:06:56;99196.59;;;16.21;73.45
75208;BME280;63795;55.684;37.864;2023-06-24T05:11:57;99203.66;;;16.29;73.11
75208;BME280;63795;55.684;37.864;2023-06-24T05:16:57;99205.16;;;16.33;73.19
75208;BME280;63795;55.684;37.864;2023-06-24T05:21:59;99209.81;;;16.40;73.03
75208;BME280;63795;55.684;37.864;2023-06-24T05:27:04;99196.31;;;16.40;73.00
75208;BME280;63795;55.684;37.864;2023-06-24T05:32:06;99204.66;;;16.47;72.76
75208;BME280;63795;55.684;37.864;2023-06-24T05:37:06;99202.03;;;16.53;72.40
75208;BME280;63795;55.684;37.864;2023-06-24T05:42:07;99193.31;;;16.56;72.70
75208;BME280;63795;55.684;37.864;2023-06-24T05:47:07;99200.16;;;16.59;72.27
75208;BME280;63795;55.684;37.864;2023-06-24T05:52:08;99200.75;;;16.54;72.49
75208;BME280;63795;55.684;37.864;2023-06-24T05:57:08;99205.56;;;16.57;72.25
75208;BME280;63795;55.684;37.864;2023-06-24T06:02:10;99213.34;;;16.56;72.34
75208;BME280;63795;55.684;37.864;2023-06-24T06:07:10;99219.88;;;16.57;72.51
75208;BME280;63795;55.684;37.864;2023-06-24T06:12:11;99219.59;;;16.64;72.45
75208;BME280;63795;55.684;37.864;2023-06-24T06:17:13;99231.13;;;16.73;72.45
75208;BME280;63795;55.684;37.864;2023-06-24T06:22:14;99229.72;;;16.77;72.39
75208;BME280;63795;55.684;37.864;2023-06-24T06:27:15;99230.53;;;16.78;72.71
75208;BME280;63795;55.684;37.864;2023-06-24T06:32:16;99236.03;;;16.85;71.73
75208;BME280;63795;55.684;37.864;2023-06-24T06:37:16;99227.88;;;16.83;71.85
75208;BME280;63795;55.684;37.864;2023-06-24T06:42:17;99238.75;;;16.88;71.71
75208;BME280;63795;55.684;37.864;2023-06-24T06:47:17;99235.34;;;16.81;71.79
75208;BME280;63795;55.684;37.864;2023-06-24T06:52:18;99234.00;;;16.73;71.70
75208;BME280;63795;55.684;37.864;2023-06-24T06:57:19;99243.06;;;16.71;72.08
75208;BME280;63795;55.684;37.864;2023-06-24T07:02:19;99250.38;;;16.72;71.79
75208;BME280;63795;55.684;37.864;2023-06-24T07:07:20;99246.38;;;16.70;71.93
75208;BME280;63795;55.684;37.864;2023-06-24T07:12:20;99250.25;;;16.76;71.89
75208;BME280;63795;55.684;37.864;2023-06-24T07:17:21;99243.84;;;16.72;72.00
75208;BME280;63795;55.684;37.864;2023-06-24T07:22:21;99251.84;;;16.77;72.13
75208;BME280;63795;55.684;37.864;2023-06-24T07:27:22;99254.50;;;16.71;71.93
75208;BME280;63795;55.684;37.864;2023-06-24T07:32:22;99261.44;;;16.83;72.17
75208;BME280;63795;55.684;37.864;2023-06-24T07:37:23;99260.50;;;16.86;71.69
75208;BME280;63795;55.684;37.864;2023-06-24T07:42:24;99266.22;;;16.86;71.58
75208;BME280;63795;55.684;37.864;2023-06-24T07:47:24;99256.41;;;16.87;71.44
75208;BME280;63795;55.684;37.864;2023-06-24T07:52:26;99268.09;;;16.80;71.69
75208;BME280;63795;55.684;37.864;2023-06-24T07:57:26;99272.22;;;16.79;72.12
75208;BME280;63795;55.684;37.864;2023-06-24T08:02:27;99282.41;;;16.80;71.91
75208;BME280;63795;55.684;37.864;2023-06-24T08:07:28;99285.75;;;16.66;72.34
75208;BME280;63795;55.684;37.864;2023-06-24T08:12:28;99290.56;;;16.69;72.73
75208;BME280;63795;55.684;37.864;2023-06-24T08:17:28;99292.06;;;16.73;72.81
75208;BME280;63795;55.684;37.864;2023-06-24T08:22:29;99299.91;;;16.82;72.16
75208;BME280;63795;55.684;37.864;2023-06-24T08:27:29;99305.97;;;16.84;72.26
75208;BME280;63795;55.684;37.864;2023-06-24T08:32:30;99308.84;;;16.84;72.67
75208;BME280;63795;55.684;37.864;2023-06-24T08:37:30;99307.25;;;16.83;72.83
75208;BME280;63795;55.684;37.864;2023-06-24T08:42:31;99313.41;;;16.81;72.88
75208;BME280;63795;55.684;37.864;2023-06-24T08:47:32;99329.22;;;16.86;73.44
75208;BME280;63795;55.684;37.864;2023-06-24T08:52:36;99333.38;;;16.85;74.04
75208;BME280;63795;55.684;37.864;2023-06-24T08:57:37;99330.41;;;16.76;74.00
75208;BME280;63795;55.684;37.864;2023-06-24T09:02:38;99344.13;;;16.81;74.91
75208;BME280;63795;55.684;37.864;2023-06-24T09:07:39;99334.53;;;16.75;75.67
75208;BME280;63795;55.684;37.864;2023-06-24T09:12:39;99346.34;;;16.64;76.46
75208;BME280;63795;55.684;37.864;2023-06-24T09:17:45;99342.00;;;16.47;76.59
75208;BME280;63795;55.684;37.864;2023-06-24T09:22:49;99360.06;;;16.44;77.44
75208;BME280;63795;55.684;37.864;2023-06-24T09:27:50;99364.06;;;16.34;77.81
75208;BME280;63795;55.684;37.864;2023-06-24T09:32:53;99366.72;;;16.29;79.36
75208;BME280;63795;55.684;37.864;2023-06-24T09:37:57;99377.94;;;16.23;79.20
75208;BME280;63795;55.684;37.864;2023-06-24T09:42:59;99370.56;;;16.09;79.70
75208;BME280;63795;55.684;37.864;2023-06-24T09:48:00;99388.78;;;16.03;79.68
75208;BME280;63795;55.684;37.864;2023-06-24T09:53:01;99400.66;;;16.01;79.18
75208;BME280;63795;55.684;37.864;2023-06-24T09:58:03;99406.84;;;16.12;79.82
75208;BME280;63795;55.684;37.864;2023-06-24T10:03:04;99416.69;;;16.11;79.08
75208;BME280;63795;55.684;37.864;2023-06-24T10:08:05;99415.97;;;16.07;79.88
75208;BME280;63795;55.684;37.864;2023-06-24T10:13:05;99422.97;;;16.06;79.75
75208;BME280;63795;55.684;37.864;2023-06-24T10:23:51;99429.41;;;16.36;78.75
75208;BME280;63795;55.684;37.864;2023-06-24T10:39:38;99434.56;;;16.41;77.22
75208;BME280;63795;55.684;37.864;2023-06-24T10:44:48;99441.72;;;16.49;77.53
75208;BME280;63795;55.684;37.864;2023-06-24T10:49:49;99450.53;;;16.54;77.56
75208;BME280;63795;55.684;37.864;2023-06-24T10:54:51;99447.19;;;16.56;76.97
75208;BME280;63795;55.684;37.864;2023-06-24T10:59:53;99465.75;;;16.64;76.74
75208;BME280;63795;55.684;37.864;2023-06-24T11:04:56;99462.66;;;16.58;76.45
75208;BME280;63795;55.684;37.864;2023-06-24T11:10:14;99457.75;;;16.59;76.46
75208;BME280;63795;55.684;37.864;2023-06-24T11:15:15;99472.75;;;16.63;76.29
75208;BME280;63795;55.684;37.864;2023-06-24T11:20:15;99472.16;;;16.68;76.20
75208;BME280;63795;55.684;37.864;2023-06-24T11:25:20;99486.38;;;16.71;76.14
75208;BME280;63795;55.684;37.864;2023-06-24T11:30:22;99492.44;;;16.73;75.52
75208;BME280;63795;55.684;37.864;2023-06-24T11:35:22;99517.06;;;16.71;75.63
75208;BME280;63795;55.684;37.864;2023-06-24T11:40:23;99499.50;;;16.56;75.69
75208;BME280;63795;55.684;37.864;2023-06-24T11:45:24;99506.16;;;16.66;75.71
75208;BME280;63795;55.684;37.864;2023-06-24T11:50:27;99509.72;;;16.95;75.30
75208;BME280;63795;55.684;37.864;2023-06-24T11:55:28;99511.06;;;17.16;74.20
75208;BME280;63795;55.684;37.864;2023-06-24T12:00:30;99518.41;;;17.29;73.23
75208;BME280;63795;55.684;37.864;2023-06-24T12:05:33;99505.75;;;17.52;72.64
75208;BME280;63795;55.684;37.864;2023-06-24T12:10:34;99519.91;;;17.80;71.77
75208;BME280;63795;55.684;37.864;2023-06-24T12:15:35;99522.44;;;17.78;72.37
75208;BME280;63795;55.684;37.864;2023-06-24T12:20:36;99530.84;;;17.73;72.02
75208;BME280;63795;55.684;37.864;2023-06-24T12:25:36;99521.38;;;17.51;71.26
75208;BME280;63795;55.684;37.864;2023-06-24T12:30:37;99530.66;;;17.42;71.36
75208;BME280;63795;55.684;37.864;2023-06-24T12:35:37;99528.59;;;17.30;71.56
75208;BME280;63795;55.684;37.864;2023-06-24T12:40:38;99531.72;;;17.23;71.97
75208;BME280;63795;55.684;37.864;2023-06-24T12:45:40;99526.63;;;17.52;71.25
75208;BME280;63795;55.684;37.864;2023-06-24T12:50:40;99529.91;;;17.76;70.39
75208;BME280;63795;55.684;37.864;2023-06-24T12:55:41;99536.88;;;17.88;68.44
75208;BME280;63795;55.684;37.864;2023-06-24T13:00:41;99535.72;;;17.85;69.67
75208;BME280;63795;55.684;37.864;2023-06-24T13:05:42;99543.31;;;17.79;68.75
75208;BME280;63795;55.684;37.864;2023-06-24T13:10:42;99555.03;;;17.72;69.68
75208;BME280;63795;55.684;37.864;2023-06-24T13:15:43;99543.59;;;17.59;69.86
75208;BME280;63795;55.684;37.864;2023-06-24T13:20:43;99554.16;;;17.50;69.76
75208;BME280;63795;55.684;37.864;2023-06-24T13:25:45;99555.53;;;17.45;69.83
75208;BME280;63795;55.684;37.864;2023-06-24T13:30:45;99557.00;;;17.62;70.13
75208;BME280;63795;55.684;37.864;2023-06-24T13:35:46;99570.28;;;17.81;69.21
75208;BME280;63795;55.684;37.864;2023-06-24T13:40:46;99580.28;;;18.11;68.22
75208;BME280;63795;55.684;37.864;2023-06-24T13:45:47;99569.13;;;18.13;67.52
75208;BME280;63795;55.684;37.864;2023-06-24T13:50:47;99561.91;;;18.09;67.31
75208;BME280;63795;55.684;37.864;2023-06-24T13:55:47;99573.19;;;18.03;68.37
75208;BME280;63795;55.684;37.864;2023-06-24T14:00:48;99571.06;;;18.16;67.78
75208;BME280;63795;55.684;37.864;2023-06-24T14:05:48;99560.91;;;18.24;67.67
75208;BME280;63795;55.684;37.864;2023-06-24T14:10:49;99571.34;;;18.31;67.88
75208;BME280;63795;55.684;37.864;2023-06-24T14:15:49;99572.94;;;18.32;67.32
75208;BME280;63795;55.684;37.864;2023-06-24T14:20:50;99571.69;;;18.33;66.63
75208;BME280;63795;55.684;37.864;2023-06-24T14:25:52;99568.84;;;18.42;66.42
75208;BME280;63795;55.684;37.864;2023-06-24T14:30:52;99577.25;;;18.49;67.04
75208;BME280;63795;55.684;37.864;2023-06-24T14:35:53;99567.25;;;18.53;67.02
75208;BME280;63795;55.684;37.864;2023-06-24T14:40:53;99575.75;;;18.66;66.42
75208;BME280;63795;55.684;37.864;2023-06-24T14:45:56;99583.50;;;18.78;65.91
75208;BME280;63795;55.684;37.864;2023-06-24T14:50:57;99572.78;;;18.70;64.54
75208;BME280;63795;55.684;37.864;2023-06-24T14:55:58;99569.75;;;18.73;64.79
75208;BME280;63795;55.684;37.864;2023-06-24T15:00:58;99584.69;;;18.90;64.98
75208;BME280;63795;55.684;37.864;2023-06-24T15:05:59;99582.09;;;19.13;65.21
75208;BME280;63795;55.684;37.864;2023-06-24T15:10:59;99589.50;;;19.23;65.17
75208;BME280;63795;55.684;37.864;2023-06-24T15:16:00;99589.16;;;19.21;62.37
75208;BME280;63795;55.684;37.864;2023-06-24T15:21:00;99589.00;;;19.16;63.29
75208;BME280;63795;55.684;37.864;2023-06-24T15:26:01;99589.69;;;18.98;64.30
75208;BME280;63795;55.684;37.864;2023-06-24T15:31:01;99601.13;;;18.89;63.73
75208;BME280;63795;55.684;37.864;2023-06-24T15:36:02;99599.00;;;18.81;64.74
75208;BME280;63795;55.684;37.864;2023-06-24T15:41:02;99588.91;;;18.76;64.30
75208;BME280;63795;55.684;37.864;2023-06-24T15:46:03;99584.03;;;18.64;64.41
75208;BME280;63795;55.684;37.864;2023-06-24T15:51:03;99590.59;;;18.64;64.91
75208;BME280;63795;55.684;37.864;2023-06-24T15:56:04;99596.00;;;18.62;64.20
75208;BME280;63795;55.684;37.864;2023-06-24T16:01:04;99584.56;;;18.50;64.15
75208;BME280;63795;55.684;37.864;2023-06-24T16:06:05;99586.19;;;18.51;63.94
75208;BME280;63795;55.684;37.864;2023-06-24T16:11:05;99591.59;;;18.49;64.62
75208;BME280;63795;55.684;37.864;2023-06-24T16:16:06;99597.00;;;18.47;64.38
75208;BME280;63795;55.684;37.864;2023-06-24T16:21:06;99601.81;;;18.50;64.49
75208;BME280;63795;55.684;37.864;2023-06-24T16:26:07;99615.03;;;18.47;64.33
75208;BME280;63795;55.684;37.864;2023-06-24T16:31:07;99613.19;;;18.41;64.28
75208;BME280;63795;55.684;37.864;2023-06-24T16:36:08;99610.56;;;18.34;64.43
75208;BME280;63795;55.684;37.864;2023-06-24T16:41:08;99608.03;;;18.36;64.04
75208;BME280;63795;55.684;37.864;2023-06-24T16:46:09;99605.66;;;18.34;64.22
75208;BME280;63795;55.684;37.864;2023-06-24T16:51:09;99601.19;;;18.33;64.32
75208;BME280;63795;55.684;37.864;2023-06-24T16:56:10;99598.44;;;18.30;63.61
75208;BME280;63795;55.684;37.864;2023-06-24T17:01:10;99609.91;;;18.30;63.80
75208;BME280;63795;55.684;37.864;2023-06-24T17:06:11;99606.69;;;18.28;63.60
75208;BME280;63795;55.684;37.864;2023-06-24T17:11:12;99617.16;;;18.22;64.05
75208;BME280;63795;55.684;37.864;2023-06-24T17:16:13;99631.50;;;18.22;63.92
75208;BME280;63795;55.684;37.864;2023-06-24T17:21:14;99629.22;;;18.29;63.88
75208;BME280;63795;55.684;37.864;2023-06-24T17:26:14;99641.44;;;18.42;64.09
75208;BME280;63795;55.684;37.864;2023-06-24T17:31:15;99649.03;;;18.36;63.96
75208;BME280;63795;55.684;37.864;2023-06-24T17:36:15;99655.38;;;18.31;64.18
75208;BME280;63795;55.684;37.864;2023-06-24T17:41:16;99668.38;;;18.23;64.10
75208;BME280;63795;55.684;37.864;2023-06-24T17:46:16;99674.00;;;18.14;64.10
75208;BME280;63795;55.684;37.864;2023-06-24T17:51:17;99680.13;;;18.04;64.57
75208;BME280;63795;55.684;37.864;2023-06-24T17:56:17;99682.56;;;17.93;64.70
75208;BME280;63795;55.684;37.864;2023-06-24T18:01:17;99678.56;;;17.77;64.93
75208;BME280;63795;55.684;37.864;2023-06-24T18:06:18;99676.50;;;17.65;65.01
75208;BME280;63795;55.684;37.864;2023-06-24T18:11:18;99689.47;;;17.57;65.26
75208;BME280;63795;55.684;37.864;2023-06-24T18:16:19;99693.09;;;17.45;65.68
75208;BME280;63795;55.684;37.864;2023-06-24T18:21:20;99708.91;;;17.37;65.70
75208;BME280;63795;55.684;37.864;2023-06-24T18:26:20;99699.38;;;17.28;65.55
75208;BME280;63795;55.684;37.864;2023-06-24T18:31:26;99700.41;;;17.21;65.81
75208;BME280;63795;55.684;37.864;2023-06-24T18:36:26;99691.66;;;17.12;65.61
75208;BME280;63795;55.684;37.864;2023-06-24T18:41:27;99702.44;;;17.08;66.56
75208;BME280;63795;55.684;37.864;2023-06-24T18:46:27;99703.91;;;17.00;65.88
75208;BME280;63795;55.684;37.864;2023-06-24T18:51:28;99706.53;;;16.94;65.99
75208;BME280;63795;55.684;37.864;2023-06-24T18:56:28;99709.69;;;16.84;66.12
75208;BME280;63795;55.684;37.864;2023-06-24T19:01:29;99716.53;;;16.74;66.45
75208;BME280;63795;55.684;37.864;2023-06-24T19:06:29;99711.00;;;16.67;67.00
75208;BME280;63795;55.684;37.864;2023-06-24T19:11:29;99714.75;;;16.64;67.38
75208;BME280;63795;55.684;37.864;2023-06-24T19:16:30;99702.38;;;16.54;67.62
75208;BME280;63795;55.684;37.864;2023-06-24T19:21:31;99706.56;;;16.50;67.36
75208;BME280;63795;55.684;37.864;2023-06-24T19:26:31;99719.72;;;16.47;67.63
75208;BME280;63795;55.684;37.864;2023-06-24T19:31:33;99722.28;;;16.42;67.85
75208;BME280;63795;55.684;37.864;2023-06-24T19:36:33;99722.84;;;16.37;67.98
75208;BME280;63795;55.684;37.864;2023-06-24T19:41:34;99727.50;;;16.31;67.32
75208;BME280;63795;55.684;37.864;2023-06-24T19:46:35;99726.00;;;16.26;68.39
75208;BME280;63795;55.684;37.864;2023-06-24T19:51:35;99730.75;;;16.16;68.48
75208;BME280;63795;55.684;37.864;2023-06-24T19:56:36;99730.50;;;16.11;68.77
75208;BME280;63795;55.684;37.864;2023-06-24T20:01:36;99724.13;;;16.03;68.01
75208;BME280;63795;55.684;37.864;2023-06-24T20:06:37;99725.13;;;15.97;68.58
75208;BME280;63795;55.684;37.864;2023-06-24T20:11:37;99730.84;;;15.97;69.55
75208;BME280;63795;55.684;37.864;2023-06-24T20:16:38;99729.47;;;15.85;68.73
75208;BME280;63795;55.684;37.864;2023-06-24T20:21:38;99715.38;;;15.78;70.17
75208;BME280;63795;55.684;37.864;2023-06-24T20:26:39;99715.72;;;15.64;70.60
75208;BME280;63795;55.684;37.864;2023-06-24T20:31:39;99731.44;;;15.72;70.68
75208;BME280;63795;55.684;37.864;2023-06-24T20:36:40;99743.75;;;15.69;70.91
75208;BME280;63795;55.684;37.864;2023-06-24T20:41:41;99741.44;;;15.64;70.72
75208;BME280;63795;55.684;37.864;2023-06-24T20:46:41;99759.47;;;15.61;70.69
75208;BME280;63795;55.684;37.864;2023-06-24T20:51:42;99765.16;;;15.61;69.86
75208;BME280;63795;55.684;37.864;2023-06-24T20:56:47;99758.00;;;15.53;70.92
75208;BME280;63795;55.684;37.864;2023-06-24T21:01:47;99756.41;;;15.52;70.11
75208;BME280;63795;55.684;37.864;2023-06-24T21:06:48;99760.59;;;15.48;70.50
75208;BME280;63795;55.684;37.864;2023-06-24T21:11:48;99755.78;;;15.45;71.18
75208;BME280;63795;55.684;37.864;2023-06-24T21:16:48;99751.88;;;15.35;70.94
75208;BME280;63795;55.684;37.864;2023-06-24T21:21:49;99760.47;;;15.35;69.93
75208;BME280;63795;55.684;37.864;2023-06-24T21:26:49;99755.78;;;15.25;70.90
75208;BME280;63795;55.684;37.864;2023-06-24T21:31:50;99753.88;;;15.18;69.90
75208;BME280;63795;55.684;37.864;2023-06-24T21:36:51;99764.50;;;15.18;69.83
75208;BME280;63795;55.684;37.864;2023-06-24T21:41:52;99754.09;;;15.08;69.68
75208;BME280;63795;55.684;37.864;2023-06-24T21:46:52;99753.44;;;15.00;69.54
75208;BME280;63795;55.684;37.864;2023-06-24T21:51:53;99768.94;;;14.99;71.38
75208;BME280;63795;55.684;37.864;2023-06-24T21:56:54;99766.69;;;14.91;70.53
75208;BME280;63795;55.684;37.864;2023-06-24T22:01:54;99758.25;;;14.84;70.54
75208;BME280;63795;55.684;37.864;2023-06-24T22:06:55;99762.00;;;14.81;72.26
75208;BME280;63795;55.684;37.864;2023-06-24T22:11:55;99752.34;;;14.75;70.16
75208;BME280;63795;55.684;37.864;2023-06-24T22:16:56;99769.47;;;14.75;70.08
75208;BME280;63795;55.684;37.864;2023-06-24T22:21:56;99765.50;;;14.69;71.20
75208;BME280;63795;55.684;37.864;2023-06-24T22:26:57;99770.41;;;14.68;70.25
75208;BME280;63795;55.684;37.864;2023-06-24T22:31:57;99770.09;;;14.63;70.05
75208;BME280;63795;55.684;37.864;2023-06-24T22:36:57;99773.38;;;14.61;72.41
75208;BME280;63795;55.684;37.864;2023-06-24T22:41:58;99776.38;;;14.54;70.82
75208;BME280;63795;55.684;37.864;2023-06-24T22:46:59;99776.44;;;14.51;71.51
75208;BME280;63795;55.684;37.864;2023-06-24T22:52:02;99781.03;;;14.44;73.67
75208;BME280;63795;55.684;37.864;2023-06-24T22:57:05;99786.41;;;14.39;71.51
75208;BME280;63795;55.684;37.864;2023-06-24T23:02:06;99792.94;;;14.39;70.90
75208;BME280;63795;55.684;37.864;2023-06-24T23:07:07;99807.56;;;14.41;71.00
75208;BME280;63795;55.684;37.864;2023-06-24T23:12:08;99795.41;;;14.37;71.24
75208;BME280;63795;55.684;37.864;2023-06-24T23:17:09;99813.78;;;14.36;71.03
75208;BME280;63795;55.684;37.864;2023-06-24T23:22:17;99823.94;;;14.37;71.33
75208;BME280;63795;55.684;37.864;2023-06-24T23:27:23;99819.13;;;14.34;70.92
75208;BME280;63795;55.684;37.864;2023-06-24T23:32:30;99824.84;;;14.31;71.00
75208;BME280;63795;55.684;37.864;2023-06-24T23:37:33;99836.28;;;14.27;70.83
75208;BME280;63795;55.684;37.864;2023-06-24T23:42:36;99832.38;;;14.18;71.61
75208;BME280;63795;55.684;37.864;2023-06-24T23:47:36;99844.59;;;14.18;71.42
75208;BME280;63795;55.684;37.864;2023-06-24T23:52:37;99832.06;;;14.12;74.70
75208;BME280;63795;55.684;37.864;2023-06-24T23:57:37;99846.03;;;14.03;71.78
